Time;durP1;ratioP1;P1;durP2;ratioP2;P2;SDS_P1;SDS_P2;PMS_P1;PMS_P2;Temp;Humidity;BMP_temperature;BMP_pressure;BME280_temperature;BME280_humidity;BME280_pressure;Samples;Min_cycle;Max_cycle;Signal;HPM_P1;HPM_P2
2023/09/30 00:00:56;;;;;;;17.38;6.43;;;;;;;;;;4990211;28;20097;-66
2023/09/30 00:03:22;;;;;;;14.50;6.03;;;;;;;;;;4991557;28;20022;-68
2023/09/30 00:05:47;;;;;;;12.80;6.25;;;;;;;;;;4993410;28;20109;-67
2023/09/30 00:08:12;;;;;;;13.87;6.80;;;;;;;;;;4993034;28;20033;-66
2023/09/30 00:10:37;;;;;;;17.10;7.07;;;;;;;;;;4993539;28;20034;-66
2023/09/30 00:13:03;;;;;;;16.23;6.33;;;;;;;;;;4993535;28;20026;-67
2023/09/30 00:15:28;;;;;;;19.43;6.17;;;;;;;;;;4992718;28;20283;-67
2023/09/30 00:17:53;;;;;;;10.77;5.60;;;;;;;;;;4993015;28;20296;-66
2023/09/30 00:20:19;;;;;;;15.80;6.00;;;;;;;;;;4993788;28;20276;-67
2023/09/30 00:22:44;;;;;;;11.80;6.07;;;;;;;;;;4993071;28;20015;-67
2023/09/30 00:25:10;;;;;;;11.87;4.83;;;;;;;;;;4993305;28;20754;-66
2023/09/30 00:27:35;;;;;;;14.38;5.70;;;;;;;;;;4993393;28;20027;-66
2023/09/30 00:30:00;;;;;;;13.38;4.53;;;;;;;;;;4993237;28;20050;-67
2023/09/30 00:32:25;;;;;;;12.93;5.70;;;;;;;;;;4992949;28;20105;-67
2023/09/30 00:34:52;;;;;;;11.13;5.77;;;;;;;;;;4980525;28;20030;-67
2023/09/30 00:37:17;;;;;;;13.27;5.80;;;;;;;;;;4992047;28;20015;-66
2023/09/30 00:39:43;;;;;;;15.98;5.72;;;;;;;;;;4996722;28;20026;-66
2023/09/30 00:42:08;;;;;;;12.27;5.78;;;;;;;;;;4996790;28;20022;-67
2023/09/30 00:44:33;;;;;;;13.87;5.77;;;;;;;;;;4996910;28;20385;-66
2023/09/30 00:46:59;;;;;;;10.90;5.90;;;;;;;;;;4996389;28;20045;-67
2023/09/30 00:49:25;;;;;;;9.88;5.38;;;;;;;;;;4996863;28;20026;-67
2023/09/30 00:51:51;;;;;;;9.32;5.18;;;;;;;;;;4996094;28;20030;-66
2023/09/30 00:54:16;;;;;;;10.43;6.05;;;;;;;;;;4996472;28;20134;-66
2023/09/30 00:56:44;;;;;;;14.40;5.38;;;;;;;;;;4995862;28;20058;-67
2023/09/30 00:59:09;;;;;;;11.60;6.15;;;;;;;;;;4996382;28;20033;-66
2023/09/30 01:01:34;;;;;;;13.13;5.40;;;;;;;;;;4996324;28;20018;-67
2023/09/30 01:04:00;;;;;;;18.95;5.82;;;;;;;;;;4996346;28;20049;-67
2023/09/30 01:06:26;;;;;;;13.80;5.72;;;;;;;;;;4996115;28;20053;-67
2023/09/30 01:08:52;;;;;;;12.45;6.22;;;;;;;;;;4995850;28;20567;-67
2023/09/30 01:11:17;;;;;;;12.18;5.82;;;;;;;;;;4995736;28;20022;-67
2023/09/30 01:13:44;;;;;;;15.27;6.47;;;;;;;;;;4996234;28;20027;-67
2023/09/30 01:16:10;;;;;;;15.05;6.88;;;;;;;;;;4996579;28;20029;-66
2023/09/30 01:18:36;;;;;;;15.95;5.78;;;;;;;;;;4995336;28;20010;-67
2023/09/30 01:21:03;;;;;;;15.05;6.40;;;;;;;;;;4996022;28;20054;-66
2023/09/30 01:23:29;;;;;;;18.40;6.20;;;;;;;;;;4996004;28;20034;-67
2023/09/30 01:25:54;;;;;;;14.65;5.93;;;;;;;;;;4995240;28;20022;-66
2023/09/30 01:28:20;;;;;;;13.97;5.77;;;;;;;;;;4985381;28;20390;-67
2023/09/30 01:30:45;;;;;;;11.30;6.38;;;;;;;;;;4995445;28;20267;-67
2023/09/30 01:33:11;;;;;;;19.25;6.38;;;;;;;;;;4995504;28;20457;-67
2023/09/30 01:35:36;;;;;;;17.05;6.30;;;;;;;;;;4994795;28;20032;-67
2023/09/30 01:38:01;;;;;;;11.20;5.60;;;;;;;;;;4992764;28;20014;-66
2023/09/30 01:40:26;;;;;;;10.02;5.28;;;;;;;;;;4979691;28;20520;-66
2023/09/30 01:42:51;;;;;;;12.47;5.60;;;;;;;;;;4995508;28;20529;-67
2023/09/30 01:45:17;;;;;;;18.70;6.10;;;;;;;;;;4995380;28;20608;-67
2023/09/30 01:47:42;;;;;;;11.17;5.93;;;;;;;;;;4993317;28;20022;-67
2023/09/30 01:50:07;;;;;;;11.40;5.47;;;;;;;;;;4995438;28;20038;-67
2023/09/30 01:52:33;;;;;;;11.32;5.40;;;;;;;;;;4995474;28;20323;-67
2023/09/30 01:54:58;;;;;;;10.05;5.13;;;;;;;;;;4995016;28;20030;-67
2023/09/30 01:57:23;;;;;;;10.23;4.73;;;;;;;;;;4995481;28;20026;-67
2023/09/30 01:59:49;;;;;;;14.67;5.70;;;;;;;;;;4995178;28;20060;-67
2023/09/30 02:02:15;;;;;;;12.15;6.15;;;;;;;;;;4995385;28;20022;-67
2023/09/30 02:04:40;;;;;;;15.48;5.95;;;;;;;;;;4995366;28;20116;-67
2023/09/30 02:07:06;;;;;;;14.17;5.33;;;;;;;;;;4994765;28;20058;-66
2023/09/30 02:09:31;;;;;;;9.60;5.10;;;;;;;;;;4995214;28;20652;-66
2023/09/30 02:11:56;;;;;;;12.67;5.77;;;;;;;;;;4994903;28;20022;-67
2023/09/30 02:14:21;;;;;;;11.60;5.20;;;;;;;;;;4994855;28;20093;-67
2023/09/30 02:16:46;;;;;;;13.10;5.37;;;;;;;;;;4994835;28;20268;-67
2023/09/30 02:19:13;;;;;;;10.90;5.03;;;;;;;;;;4994634;28;20022;-67
2023/09/30 02:21:38;;;;;;;13.68;5.82;;;;;;;;;;4994840;28;20069;-66
2023/09/30 02:24:06;;;;;;;13.77;5.10;;;;;;;;;;4994750;28;20018;-67
2023/09/30 02:26:32;;;;;;;13.10;5.15;;;;;;;;;;4994746;28;20478;-67
2023/09/30 02:28:57;;;;;;;14.38;5.80;;;;;;;;;;4994968;28;20065;-67
2023/09/30 02:31:23;;;;;;;13.38;6.18;;;;;;;;;;4986230;28;20026;-66
2023/09/30 02:33:49;;;;;;;16.85;7.20;;;;;;;;;;4993019;28;20027;-67
2023/09/30 02:36:15;;;;;;;11.07;6.20;;;;;;;;;;4994623;28;20026;-66
2023/09/30 02:38:41;;;;;;;12.30;5.93;;;;;;;;;;4994530;28;20287;-67
2023/09/30 02:41:06;;;;;;;12.20;5.50;;;;;;;;;;4994032;28;20477;-67
2023/09/30 02:43:32;;;;;;;9.15;5.03;;;;;;;;;;4994185;28;20060;-66
2023/09/30 02:45:58;;;;;;;10.30;5.63;;;;;;;;;;4990595;28;20478;-66
2023/09/30 02:48:23;;;;;;;12.77;5.85;;;;;;;;;;4993900;28;20032;-67
2023/09/30 02:50:48;;;;;;;10.83;5.40;;;;;;;;;;4993561;28;20038;-66
2023/09/30 02:53:13;;;;;;;14.65;5.10;;;;;;;;;;4994362;28;20025;-66
2023/09/30 02:55:39;;;;;;;20.58;6.65;;;;;;;;;;4986435;28;20026;-67
2023/09/30 02:58:05;;;;;;;18.42;6.82;;;;;;;;;;4994031;28;20022;-66
2023/09/30 03:00:32;;;;;;;13.13;6.38;;;;;;;;;;4994407;28;20034;-70
2023/09/30 03:02:59;;;;;;;15.48;6.57;;;;;;;;;;4994064;28;20418;-70
2023/09/30 03:05:24;;;;;;;19.80;7.07;;;;;;;;;;4994017;28;20088;-70
2023/09/30 03:07:53;;;;;;;18.57;9.00;;;;;;;;;;4993567;28;20018;-70
2023/09/30 03:10:20;;;;;;;16.23;7.13;;;;;;;;;;4993908;28;20042;-70
2023/09/30 03:12:48;;;;;;;16.35;7.40;;;;;;;;;;4994033;28;20018;-70
2023/09/30 03:15:14;;;;;;;18.70;7.97;;;;;;;;;;4994126;28;20077;-70
2023/09/30 03:17:39;;;;;;;20.35;8.02;;;;;;;;;;4994116;28;20033;-70
2023/09/30 03:20:12;;;;;;;15.57;7.67;;;;;;;;;;4993826;28;20102;-70
2023/09/30 03:22:37;;;;;;;;;;;;;;;;;;4994703;28;20263;-70
2023/09/30 03:25:02;;;;;;;15.65;7.38;;;;;;;;;;4993903;28;19909;-70
2023/09/30 03:27:27;;;;;;;18.42;7.57;;;;;;;;;;4993654;28;20019;-70
2023/09/30 03:29:53;;;;;;;16.80;7.03;;;;;;;;;;4992674;28;20022;-70
2023/09/30 03:32:18;;;;;;;17.30;8.15;;;;;;;;;;4993813;28;20026;-70
2023/09/30 03:34:46;;;;;;;12.70;6.47;;;;;;;;;;4993848;28;20382;-70
2023/09/30 03:37:11;;;;;;;18.02;9.18;;;;;;;;;;4977237;28;20018;-70
2023/09/30 03:39:36;;;;;;;16.58;8.10;;;;;;;;;;4992612;28;20077;-70
2023/09/30 03:42:03;;;;;;;15.68;8.65;;;;;;;;;;4993616;28;20032;-70
2023/09/30 03:44:28;;;;;;;18.10;8.27;;;;;;;;;;4993782;28;20115;-70
2023/09/30 03:46:53;;;;;;;18.48;8.95;;;;;;;;;;4993314;28;20026;-70
2023/09/30 03:49:19;;;;;;;12.33;7.00;;;;;;;;;;4993394;28;20026;-70
2023/09/30 03:51:45;;;;;;;16.92;7.57;;;;;;;;;;4993792;28;20084;-70
2023/09/30 03:54:11;;;;;;;18.00;8.00;;;;;;;;;;4993601;28;20031;-70
2023/09/30 03:56:38;;;;;;;14.88;7.75;;;;;;;;;;4992701;28;20022;-70
2023/09/30 03:59:03;;;;;;;14.98;8.32;;;;;;;;;;4991763;28;20022;-70
2023/09/30 04:01:29;;;;;;;15.63;7.13;;;;;;;;;;4985014;28;20467;-70
2023/09/30 04:03:55;;;;;;;12.77;6.95;;;;;;;;;;4974525;28;20246;-70
2023/09/30 04:06:20;;;;;;;17.48;7.45;;;;;;;;;;4989272;28;20489;-71
2023/09/30 04:08:45;;;;;;;18.27;7.40;;;;;;;;;;4993020;28;20038;-70
2023/09/30 04:11:16;;;;;;;19.63;8.67;;;;;;;;;;4995072;28;20018;-66
2023/09/30 04:13:42;;;;;;;20.98;9.05;;;;;;;;;;4997550;28;20105;-66
2023/09/30 04:16:07;;;;;;;17.67;8.80;;;;;;;;;;4997265;28;20121;-66
2023/09/30 04:18:32;;;;;;;16.67;7.00;;;;;;;;;;4997003;28;20485;-66
2023/09/30 04:20:57;;;;;;;15.67;7.77;;;;;;;;;;4997021;28;20751;-66
2023/09/30 04:23:22;;;;;;;17.13;8.23;;;;;;;;;;4997099;28;20023;-66
2023/09/30 04:25:49;;;;;;;18.93;7.10;;;;;;;;;;4997147;28;20036;-67
2023/09/30 04:28:16;;;;;;;16.05;8.07;;;;;;;;;;4997048;28;20065;-67
2023/09/30 04:30:41;;;;;;;17.13;7.80;;;;;;;;;;4996448;28;20064;-67
2023/09/30 04:33:07;;;;;;;18.00;7.60;;;;;;;;;;4996947;28;20026;-67
2023/09/30 04:35:32;;;;;;;14.40;7.22;;;;;;;;;;4997282;28;20412;-67
2023/09/30 04:38:04;;;;;;;23.83;8.20;;;;;;;;;;4996671;28;20076;-66
2023/09/30 04:40:29;;;;;;;45.05;9.23;;;;;;;;;;4996655;28;20260;-66
2023/09/30 04:42:58;;;;;;;26.70;8.53;;;;;;;;;;4997014;28;20023;-67
2023/09/30 04:45:24;;;;;;;117.28;8.48;;;;;;;;;;4996505;28;20462;-67
2023/09/30 04:47:50;;;;;;;32.70;7.22;;;;;;;;;;4996575;28;20027;-67
2023/09/30 04:50:15;;;;;;;28.02;6.88;;;;;;;;;;4996451;28;20080;-66
2023/09/30 04:52:41;;;;;;;38.50;7.68;;;;;;;;;;4996530;28;20026;-66
2023/09/30 04:55:06;;;;;;;18.33;7.67;;;;;;;;;;4993080;28;20038;-66
2023/09/30 04:57:31;;;;;;;18.15;7.18;;;;;;;;;;4996258;28;20276;-67
2023/09/30 04:59:57;;;;;;;22.50;7.50;;;;;;;;;;4995988;28;20041;-66
2023/09/30 05:02:23;;;;;;;13.88;6.75;;;;;;;;;;4995967;28;20256;-66
2023/09/30 05:04:48;;;;;;;22.02;6.82;;;;;;;;;;4987900;28;20026;-66
2023/09/30 05:07:13;;;;;;;18.50;6.35;;;;;;;;;;4996267;28;20019;-66
2023/09/30 05:09:39;;;;;;;13.30;5.95;;;;;;;;;;4995291;28;20137;-66
2023/09/30 05:12:04;;;;;;;25.13;6.65;;;;;;;;;;4995916;28;20015;-67
2023/09/30 05:14:29;;;;;;;35.33;6.72;;;;;;;;;;4996240;28;20033;-67
2023/09/30 05:16:56;;;;;;;11.90;5.65;;;;;;;;;;4995807;28;20030;-67
2023/09/30 05:19:21;;;;;;;11.18;5.55;;;;;;;;;;4996291;28;20025;-71
2023/09/30 05:21:47;;;;;;;19.42;7.30;;;;;;;;;;4996169;28;20370;-70
2023/09/30 05:24:12;;;;;;;11.10;6.43;;;;;;;;;;4995763;28;20026;-70
2023/09/30 05:26:37;;;;;;;18.67;7.13;;;;;;;;;;4995984;28;20058;-70
2023/09/30 05:29:03;;;;;;;19.33;6.90;;;;;;;;;;4995819;28;20264;-70
2023/09/30 05:31:28;;;;;;;14.55;6.75;;;;;;;;;;4995861;28;20034;-71
2023/09/30 05:33:55;;;;;;;11.25;6.57;;;;;;;;;;4995678;28;20033;-71
2023/09/30 05:36:20;;;;;;;21.15;7.75;;;;;;;;;;4996209;28;20402;-71
2023/09/30 05:38:45;;;;;;;24.40;6.32;;;;;;;;;;4995930;28;20025;-70
2023/09/30 05:41:12;;;;;;;46.87;6.97;;;;;;;;;;4995759;28;20101;-70
2023/09/30 05:43:37;;;;;;;80.90;7.97;;;;;;;;;;4995907;28;20037;-70
2023/09/30 05:46:04;;;;;;;82.95;7.22;;;;;;;;;;4995525;28;20026;-70
2023/09/30 05:48:29;;;;;;;53.10;7.78;;;;;;;;;;4995571;28;20429;-70
2023/09/30 05:50:55;;;;;;;39.65;7.63;;;;;;;;;;4995226;28;20030;-70
2023/09/30 05:53:20;;;;;;;19.00;7.60;;;;;;;;;;4994949;28;20031;-70
2023/09/30 05:55:46;;;;;;;22.88;7.30;;;;;;;;;;4995125;28;20096;-70
2023/09/30 05:58:13;;;;;;;27.33;8.13;;;;;;;;;;4995786;28;20022;-70
2023/09/30 06:00:40;;;;;;;24.60;8.32;;;;;;;;;;4995252;28;20033;-70
2023/09/30 06:03:06;;;;;;;12.88;6.85;;;;;;;;;;4995097;28;20084;-70
2023/09/30 06:05:32;;;;;;;16.17;6.93;;;;;;;;;;4995347;28;20081;-70
2023/09/30 06:07:57;;;;;;;11.50;6.13;;;;;;;;;;4978705;28;20442;-70
2023/09/30 06:10:23;;;;;;;13.68;6.85;;;;;;;;;;4994892;28;20050;-70
2023/09/30 06:12:49;;;;;;;12.93;6.72;;;;;;;;;;4995347;28;20489;-70
2023/09/30 06:15:15;;;;;;;9.63;5.70;;;;;;;;;;4994486;28;20104;-70
2023/09/30 06:17:40;;;;;;;12.32;6.75;;;;;;;;;;4994640;28;20053;-70
2023/09/30 06:20:15;;;;;;;11.93;6.75;;;;;;;;;;4994879;28;20054;-70
2023/09/30 06:22:41;;;;;;;10.82;5.70;;;;;;;;;;4994942;28;20477;-70
2023/09/30 06:25:06;;;;;;;8.48;5.25;;;;;;;;;;4994568;28;20025;-70
2023/09/30 06:27:32;;;;;;;13.70;5.78;;;;;;;;;;4994838;28;20462;-70
2023/09/30 06:29:57;;;;;;;8.90;5.67;;;;;;;;;;4994897;28;20049;-70
2023/09/30 06:32:22;;;;;;;10.52;5.45;;;;;;;;;;4994633;28;20104;-70
2023/09/30 06:34:47;;;;;;;13.40;5.60;;;;;;;;;;4993926;28;20382;-70
2023/09/30 06:37:12;;;;;;;11.90;5.53;;;;;;;;;;4994805;28;20026;-70
2023/09/30 06:39:38;;;;;;;14.10;6.53;;;;;;;;;;4994650;28;20022;-70
2023/09/30 06:42:03;;;;;;;15.80;5.80;;;;;;;;;;4994387;28;20264;-70
2023/09/30 06:44:31;;;;;;;9.68;5.85;;;;;;;;;;4994693;28;20031;-70
2023/09/30 06:46:56;;;;;;;11.18;6.30;;;;;;;;;;4994499;28;20033;-70
2023/09/30 06:49:21;;;;;;;13.23;6.22;;;;;;;;;;4994624;28;20030;-70
2023/09/30 06:51:47;;;;;;;9.30;5.07;;;;;;;;;;4994029;28;20504;-70
2023/09/30 06:54:12;;;;;;;6.32;4.05;;;;;;;;;;4994034;28;20560;-70
2023/09/30 06:56:38;;;;;;;10.23;5.03;;;;;;;;;;4994112;28;20054;-70
2023/09/30 06:59:03;;;;;;;20.10;5.40;;;;;;;;;;4994249;28;20708;-70
2023/09/30 07:01:28;;;;;;;14.15;4.60;;;;;;;;;;4993240;28;20073;-70
2023/09/30 07:03:53;;;;;;;23.15;6.63;;;;;;;;;;4994229;28;20022;-70
2023/09/30 07:06:25;;;;;;;18.80;6.03;;;;;;;;;;4992738;28;20028;-70
2023/09/30 07:08:50;;;;;;;32.95;6.65;;;;;;;;;;4990381;28;20061;-70
2023/09/30 07:11:15;;;;;;;43.97;6.78;;;;;;;;;;4974962;28;20019;-70
2023/09/30 07:13:41;;;;;;;18.67;8.27;;;;;;;;;;4974754;28;20026;-70
2023/09/30 07:16:06;;;;;;;20.43;8.60;;;;;;;;;;4992848;28;20463;-70
2023/09/30 07:18:31;;;;;;;36.67;8.23;;;;;;;;;;4991410;28;20015;-70
2023/09/30 07:20:56;;;;;;;63.10;9.68;;;;;;;;;;4983859;28;20014;-70
2023/09/30 07:23:22;;;;;;;30.13;9.33;;;;;;;;;;4993032;28;20486;-69
2023/09/30 07:25:47;;;;;;;52.65;8.43;;;;;;;;;;4993897;28;20561;-70
2023/09/30 07:28:13;;;;;;;57.90;8.13;;;;;;;;;;4994219;28;20026;-70
2023/09/30 07:30:38;;;;;;;26.70;9.48;;;;;;;;;;4992251;28;20108;-69
2023/09/30 07:33:04;;;;;;;22.35;7.10;;;;;;;;;;4993641;28;20026;-70
2023/09/30 07:35:29;;;;;;;50.30;8.20;;;;;;;;;;4993397;28;20034;-69
2023/09/30 07:37:54;;;;;;;69.03;7.00;;;;;;;;;;4993952;28;20015;-69
2023/09/30 07:40:21;;;;;;;52.67;7.50;;;;;;;;;;4993852;28;20413;-66
2023/09/30 07:42:46;;;;;;;31.13;7.32;;;;;;;;;;4980676;28;20019;-66
2023/09/30 07:45:16;;;;;;;16.20;7.38;;;;;;;;;;4977928;28;20076;-66
2023/09/30 07:47:41;;;;;;;14.35;7.38;;;;;;;;;;4997493;28;20382;-66
2023/09/30 07:50:09;;;;;;;19.43;6.43;;;;;;;;;;4997674;28;20029;-67
2023/09/30 07:52:34;;;;;;;29.23;7.53;;;;;;;;;;4997833;28;20533;-66
2023/09/30 07:55:00;;;;;;;41.08;5.97;;;;;;;;;;4997729;28;20114;-66
2023/09/30 07:57:25;;;;;;;32.28;6.72;;;;;;;;;;4997483;28;20474;-66
2023/09/30 07:59:51;;;;;;;19.95;6.82;;;;;;;;;;4997073;28;20022;-67
2023/09/30 08:02:17;;;;;;;17.30;6.65;;;;;;;;;;4995531;28;20173;-66
2023/09/30 08:04:43;;;;;;;47.38;7.00;;;;;;;;;;4996759;28;20030;-68
2023/09/30 08:07:09;;;;;;;27.98;6.50;;;;;;;;;;4983876;28;20457;-67
2023/09/30 08:09:34;;;;;;;26.58;6.90;;;;;;;;;;4994768;28;20050;-67
2023/09/30 08:11:59;;;;;;;27.08;16.23;;;;;;;;;;4988801;28;20496;-67
2023/09/30 08:14:25;;;;;;;32.57;9.10;;;;;;;;;;4988418;28;20068;-66
2023/09/30 08:16:50;;;;;;;16.13;7.53;;;;;;;;;;4996994;28;20434;-66
2023/09/30 08:19:16;;;;;;;13.50;6.78;;;;;;;;;;4988366;28;20466;-66
2023/09/30 08:21:41;;;;;;;16.73;6.57;;;;;;;;;;4993683;28;20054;-66
2023/09/30 08:24:06;;;;;;;13.73;5.87;;;;;;;;;;4997357;28;20459;-66
2023/09/30 08:26:33;;;;;;;12.75;6.63;;;;;;;;;;4997040;28;20335;-66
2023/09/30 08:28:58;;;;;;;12.18;6.60;;;;;;;;;;4978701;28;20029;-67
2023/09/30 08:31:24;;;;;;;13.95;7.68;;;;;;;;;;4975867;28;20019;-67
2023/09/30 08:33:49;;;;;;;14.00;7.57;;;;;;;;;;4993209;28;20351;-67
2023/09/30 08:36:14;;;;;;;10.07;6.17;;;;;;;;;;4994950;28;20465;-66
2023/09/30 08:38:40;;;;;;;12.73;6.88;;;;;;;;;;4994685;28;20019;-67
2023/09/30 08:41:07;;;;;;;13.98;5.82;;;;;;;;;;4994813;28;20026;-77
2023/09/30 08:43:36;;;;;;;15.55;6.45;;;;;;;;;;4995172;28;20022;-77
2023/09/30 08:46:02;;;;;;;12.52;6.90;;;;;;;;;;4996259;28;20076;-78
2023/09/30 08:48:28;;;;;;;9.20;6.00;;;;;;;;;;4996394;28;20113;-77
2023/09/30 08:50:57;;;;;;;16.73;6.47;;;;;;;;;;4994642;28;20022;-78
2023/09/30 08:53:22;;;;;;;12.07;6.50;;;;;;;;;;4994951;28;20109;-65
2023/09/30 08:55:50;;;;;;;12.80;6.18;;;;;;;;;;4995032;28;20488;-66
2023/09/30 08:58:16;;;;;;;11.65;5.75;;;;;;;;;;4995180;28;20105;-66
2023/09/30 09:00:42;;;;;;;8.87;4.93;;;;;;;;;;4996093;28;20150;-66
2023/09/30 09:03:07;;;;;;;13.55;6.15;;;;;;;;;;4994862;28;20260;-66
2023/09/30 09:05:33;;;;;;;10.68;6.30;;;;;;;;;;4995936;28;20057;-66
2023/09/30 09:07:58;;;;;;;9.00;5.30;;;;;;;;;;4995567;28;20038;-65
2023/09/30 09:10:23;;;;;;;8.90;4.83;;;;;;;;;;4995764;28;20413;-65
2023/09/30 09:12:56;;;;;;;9.77;4.47;;;;;;;;;;4995799;28;20022;-65
2023/09/30 09:15:23;;;;;;;10.55;4.57;;;;;;;;;;4992367;28;20106;-66
2023/09/30 09:17:50;;;;;;;8.32;4.53;;;;;;;;;;4994229;28;20014;-66
2023/09/30 09:20:22;;;;;;;6.80;3.63;;;;;;;;;;4994600;28;20109;-66
2023/09/30 09:22:50;;;;;;;7.20;3.92;;;;;;;;;;4995273;28;20058;-66
2023/09/30 09:25:15;;;;;;;8.20;3.90;;;;;;;;;;4991042;28;20524;-66
2023/09/30 09:27:41;;;;;;;13.30;4.37;;;;;;;;;;4994544;28;20026;-66
2023/09/30 09:30:15;;;;;;;10.00;4.30;;;;;;;;;;4994967;28;20038;-74
2023/09/30 09:33:01;;;;;;;7.93;3.58;;;;;;;;;;4993835;28;20286;-79
2023/09/30 09:35:30;;;;;;;7.70;3.85;;;;;;;;;;4984803;28;20065;-79
2023/09/30 09:38:00;;;;;;;11.85;5.57;;;;;;;;;;4994800;28;20030;-66
2023/09/30 09:40:26;;;;;;;6.55;3.15;;;;;;;;;;4996034;28;20048;-65
2023/09/30 09:42:54;;;;;;;9.10;3.25;;;;;;;;;;4994027;28;20086;-66
2023/09/30 09:45:20;;;;;;;8.20;2.65;;;;;;;;;;4994217;28;20476;-66
2023/09/30 09:47:46;;;;;;;9.40;2.60;;;;;;;;;;4993906;28;20022;-66
2023/09/30 09:50:13;;;;;;;7.10;2.80;;;;;;;;;;4992987;28;20113;-65
2023/09/30 09:52:39;;;;;;;7.88;3.00;;;;;;;;;;4993808;28;20090;-66
2023/09/30 09:55:05;;;;;;;14.95;4.57;;;;;;;;;;4993380;28;20470;-66
2023/09/30 09:57:30;;;;;;;7.55;3.50;;;;;;;;;;4993735;28;20025;-66
2023/09/30 09:59:56;;;;;;;12.60;5.90;;;;;;;;;;4995450;28;20058;-70
2023/09/30 10:02:21;;;;;;;16.17;7.20;;;;;;;;;;4995494;28;20018;-70
2023/09/30 10:04:47;;;;;;;15.83;3.40;;;;;;;;;;4995438;28;20022;-69
2023/09/30 10:07:16;;;;;;;9.00;4.10;;;;;;;;;;4995433;28;20257;-69
2023/09/30 10:09:45;;;;;;;9.80;3.50;;;;;;;;;;4994408;28;20572;-69
2023/09/30 10:12:11;;;;;;;7.95;3.22;;;;;;;;;;4995608;28;20041;-70
2023/09/30 10:14:36;;;;;;;7.82;3.65;;;;;;;;;;4995237;28;20462;-69
2023/09/30 10:17:03;;;;;;;6.38;2.75;;;;;;;;;;4995317;28;20046;-69
2023/09/30 10:19:30;;;;;;;5.68;3.28;;;;;;;;;;4994867;28;20022;-69
2023/09/30 10:22:14;;;;;;;9.55;3.38;;;;;;;;;;4995391;28;20048;-69
2023/09/30 10:24:39;;;;;;;7.57;3.08;;;;;;;;;;4995116;28;20076;-69
2023/09/30 10:27:23;;;;;;;8.33;3.30;;;;;;;;;;4995117;28;20045;-70
2023/09/30 10:29:53;;;;;;;8.70;3.53;;;;;;;;;;4995312;28;20433;-70
2023/09/30 10:32:18;;;;;;;8.30;3.40;;;;;;;;;;4994949;28;20532;-69
2023/09/30 10:34:47;;;;;;;8.57;3.57;;;;;;;;;;4995059;28;20022;-69
2023/09/30 10:37:22;;;;;;;7.43;3.83;;;;;;;;;;4987728;28;20273;-69
2023/09/30 10:39:58;;;;;;;8.25;3.55;;;;;;;;;;4978368;28;20050;-69
2023/09/30 10:42:42;;;;;;;7.07;3.20;;;;;;;;;;4974681;28;20089;-69
2023/09/30 10:45:07;;;;;;;10.88;4.53;;;;;;;;;;4974777;28;20033;-69
2023/09/30 10:47:32;;;;;;;11.55;4.05;;;;;;;;;;4974471;28;20031;-69
2023/09/30 10:49:57;;;;;;;11.33;4.67;;;;;;;;;;4986430;28;20062;-69
2023/09/30 10:52:24;;;;;;;11.95;4.53;;;;;;;;;;4974032;28;20390;-69
2023/09/30 10:54:50;;;;;;;13.35;4.82;;;;;;;;;;4974879;28;20097;-70
2023/09/30 10:57:29;;;;;;;12.88;5.13;;;;;;;;;;4989691;28;20128;-69
2023/09/30 11:00:07;;;;;;;15.75;4.53;;;;;;;;;;4994177;28;20100;-70
2023/09/30 11:02:32;;;;;;;12.43;4.53;;;;;;;;;;4993835;28;20378;-69
2023/09/30 11:05:08;;;;;;;13.57;4.70;;;;;;;;;;4994015;28;20030;-69
2023/09/30 11:07:33;;;;;;;11.90;3.97;;;;;;;;;;4993541;28;20474;-70
2023/09/30 11:10:00;;;;;;;18.63;5.30;;;;;;;;;;4993859;28;20101;-65
2023/09/30 11:12:26;;;;;;;15.23;5.63;;;;;;;;;;4993888;28;20034;-65
2023/09/30 11:14:58;;;;;;;16.65;5.30;;;;;;;;;;4993844;28;20493;-65
2023/09/30 11:17:24;;;;;;;15.60;5.50;;;;;;;;;;4994026;28;20486;-65
2023/09/30 11:19:49;;;;;;;15.38;5.30;;;;;;;;;;4993365;28;20110;-65
2023/09/30 11:22:15;;;;;;;13.32;5.38;;;;;;;;;;4993144;28;20022;-65
2023/09/30 11:24:40;;;;;;;14.48;5.30;;;;;;;;;;4993925;28;20026;-65
2023/09/30 11:27:05;;;;;;;14.30;5.00;;;;;;;;;;4992647;28;20537;-65
2023/09/30 11:29:31;;;;;;;15.53;5.30;;;;;;;;;;4993211;28;20026;-65
2023/09/30 11:31:57;;;;;;;13.00;4.20;;;;;;;;;;4993694;28;20612;-65
2023/09/30 11:34:32;;;;;;;14.15;4.93;;;;;;;;;;4993755;28;20037;-65
2023/09/30 11:36:58;;;;;;;14.23;4.63;;;;;;;;;;4993015;28;20377;-65
2023/09/30 11:39:24;;;;;;;11.02;4.40;;;;;;;;;;4993778;28;20026;-65
2023/09/30 11:41:49;;;;;;;14.90;5.07;;;;;;;;;;4993470;28;20071;-65
2023/09/30 11:44:16;;;;;;;14.35;4.78;;;;;;;;;;4993404;28;20402;-66
2023/09/30 11:46:51;;;;;;;11.95;5.63;;;;;;;;;;4992192;28;20023;-65
2023/09/30 11:49:38;;;;;;;15.27;4.90;;;;;;;;;;4993763;28;20026;-65
2023/09/30 11:52:04;;;;;;;13.40;5.10;;;;;;;;;;4987113;28;20015;-65
2023/09/30 11:54:31;;;;;;;15.30;5.22;;;;;;;;;;4974043;28;20466;-65
2023/09/30 11:56:56;;;;;;;14.25;5.05;;;;;;;;;;4987898;28;20081;-65
2023/09/30 11:59:22;;;;;;;12.40;4.63;;;;;;;;;;4993739;28;20413;-65
2023/09/30 12:01:48;;;;;;;16.20;4.68;;;;;;;;;;4993314;28;20025;-65
2023/09/30 12:04:13;;;;;;;16.38;5.13;;;;;;;;;;4993147;28;20046;-65
2023/09/30 12:06:39;;;;;;;11.52;4.40;;;;;;;;;;4992666;28;20049;-65
2023/09/30 12:09:05;;;;;;;16.27;5.55;;;;;;;;;;4993260;28;20038;-65
2023/09/30 12:11:31;;;;;;;12.77;4.55;;;;;;;;;;4993408;28;20035;-65
2023/09/30 12:13:56;;;;;;;15.00;5.40;;;;;;;;;;4992986;28;20014;-69
2023/09/30 12:16:21;;;;;;;13.95;5.03;;;;;;;;;;4993341;28;20033;-67
2023/09/30 12:18:46;;;;;;;14.05;4.63;;;;;;;;;;4993438;28;20010;-67
2023/09/30 12:21:13;;;;;;;13.27;4.88;;;;;;;;;;4992794;28;20022;-67
2023/09/30 12:23:38;;;;;;;14.90;5.13;;;;;;;;;;4974445;28;20414;-67
2023/09/30 12:26:05;;;;;;;13.20;5.20;;;;;;;;;;4980125;28;20018;-67
2023/09/30 12:28:32;;;;;;;13.60;5.15;;;;;;;;;;4993044;28;20102;-67
2023/09/30 12:30:57;;;;;;;17.10;4.78;;;;;;;;;;4992797;28;20533;-68
2023/09/30 12:33:23;;;;;;;10.43;3.97;;;;;;;;;;4996573;28;20026;-69
2023/09/30 12:35:48;;;;;;;14.68;5.10;;;;;;;;;;4996139;28;20146;-67
2023/09/30 12:38:16;;;;;;;14.05;4.95;;;;;;;;;;4996640;28;20018;-67
2023/09/30 12:40:41;;;;;;;10.90;4.28;;;;;;;;;;4996649;28;20010;-74
2023/09/30 12:43:06;;;;;;;11.60;4.57;;;;;;;;;;4996600;28;20014;-73
2023/09/30 12:45:31;;;;;;;18.43;5.27;;;;;;;;;;4996495;28;20248;-75
2023/09/30 12:47:57;;;;;;;14.05;5.13;;;;;;;;;;4996567;28;20770;-74
2023/09/30 12:50:22;;;;;;;15.57;5.50;;;;;;;;;;4995959;28;20054;-75
2023/09/30 12:52:47;;;;;;;14.63;6.05;;;;;;;;;;4996270;28;20724;-74
2023/09/30 12:55:13;;;;;;;17.60;5.53;;;;;;;;;;4995964;28;20019;-74
2023/09/30 12:57:39;;;;;;;19.00;6.27;;;;;;;;;;4996278;28;20248;-74
2023/09/30 13:00:09;;;;;;;17.92;5.15;;;;;;;;;;4996294;28;20251;-74
2023/09/30 13:02:34;;;;;;;17.75;5.47;;;;;;;;;;4996204;28;20014;-73
2023/09/30 13:04:59;;;;;;;14.67;4.97;;;;;;;;;;4995932;28;20390;-73
2023/09/30 13:07:24;;;;;;;15.93;6.17;;;;;;;;;;4994609;28;20023;-73
2023/09/30 13:09:50;;;;;;;14.80;5.30;;;;;;;;;;4996002;28;20128;-74
2023/09/30 13:12:16;;;;;;;14.37;5.30;;;;;;;;;;4996153;28;20018;-74
2023/09/30 13:14:42;;;;;;;14.68;5.28;;;;;;;;;;4995638;28;20471;-74
2023/09/30 13:17:07;;;;;;;16.80;5.88;;;;;;;;;;4996042;28;20019;-74
2023/09/30 13:19:33;;;;;;;14.73;5.78;;;;;;;;;;4995835;28;20021;-74
2023/09/30 13:21:58;;;;;;;13.70;5.75;;;;;;;;;;4995265;28;20025;-74
2023/09/30 13:24:23;;;;;;;15.93;6.00;;;;;;;;;;4995437;28;20113;-75
2023/09/30 13:26:48;;;;;;;15.67;5.50;;;;;;;;;;4995842;28;20287;-74
2023/09/30 13:29:16;;;;;;;11.35;4.65;;;;;;;;;;4994559;28;20025;-74
2023/09/30 13:31:41;;;;;;;17.40;5.78;;;;;;;;;;4994423;28;20022;-75
2023/09/30 13:34:06;;;;;;;14.38;5.15;;;;;;;;;;4995430;28;20355;-75
2023/09/30 13:36:32;;;;;;;15.10;6.03;;;;;;;;;;4993718;28;20019;-74
2023/09/30 13:38:57;;;;;;;17.30;5.47;;;;;;;;;;4995571;28;20538;-75
2023/09/30 13:41:23;;;;;;;17.80;6.23;;;;;;;;;;4995392;28;20401;-75
2023/09/30 13:43:48;;;;;;;13.95;5.50;;;;;;;;;;4992989;28;20517;-76
2023/09/30 13:46:13;;;;;;;15.20;5.53;;;;;;;;;;4995001;28;20030;-74
2023/09/30 13:48:38;;;;;;;17.80;6.15;;;;;;;;;;4995373;28;20018;-75
2023/09/30 13:51:05;;;;;;;19.67;5.77;;;;;;;;;;4994886;28;20050;-75
2023/09/30 13:53:30;;;;;;;14.75;6.40;;;;;;;;;;4960431;28;20027;-75
2023/09/30 13:55:55;;;;;;;15.10;5.33;;;;;;;;;;4989652;28;20425;-75
2023/09/30 13:58:20;;;;;;;17.50;6.23;;;;;;;;;;4994118;28;20022;-75
2023/09/30 14:00:46;;;;;;;12.67;5.43;;;;;;;;;;4993867;28;20026;-74
2023/09/30 14:03:11;;;;;;;12.88;5.57;;;;;;;;;;4994471;28;20054;-75
2023/09/30 14:05:38;;;;;;;13.40;5.67;;;;;;;;;;4994666;28;20355;-74
2023/09/30 14:08:04;;;;;;;15.93;5.50;;;;;;;;;;4993798;28;20031;-74
2023/09/30 14:10:29;;;;;;;15.02;6.18;;;;;;;;;;4994679;28;20057;-75
2023/09/30 14:12:54;;;;;;;16.77;6.30;;;;;;;;;;4995037;28;20034;-74
2023/09/30 14:15:20;;;;;;;16.25;5.88;;;;;;;;;;4994916;28;20066;-75
2023/09/30 14:17:45;;;;;;;20.05;6.40;;;;;;;;;;4994612;28;20018;-75
2023/09/30 14:20:12;;;;;;;15.82;6.35;;;;;;;;;;4994271;28;20141;-74
2023/09/30 14:22:37;;;;;;;19.17;5.95;;;;;;;;;;4984396;28;20471;-74
2023/09/30 14:25:02;;;;;;;17.77;5.97;;;;;;;;;;4975321;28;20030;-75